sensor_id;sensor_type;location;lat;lon;timestamp;temperature;humidity
52245;DHT22;55759;51.586;-1.758;2023-07-31T00:01:20;16.40;93.00
52245;DHT22;55759;51.586;-1.758;2023-07-31T00:03:46;16.40;93.00
52245;DHT22;55759;51.586;-1.758;2023-07-31T00:06:12;16.40;93.00
52245;DHT22;55759;51.586;-1.758;2023-07-31T00:08:37;16.40;93.00
52245;DHT22;55759;51.586;-1.758;2023-07-31T00:11:03;16.40;93.10
52245;DHT22;55759;51.586;-1.758;2023-07-31T00:13:28;16.40;93.10
52245;DHT22;55759;51.586;-1.758;2023-07-31T00:15:54;16.40;93.10
52245;DHT22;55759;51.586;-1.758;2023-07-31T00:18:20;16.40;93.10
52245;DHT22;55759;51.586;-1.758;2023-07-31T00:20:45;16.40;93.10
52245;DHT22;55759;51.586;-1.758;2023-07-31T00:23:11;16.40;93.10
52245;DHT22;55759;51.586;-1.758;2023-07-31T00:25:36;16.40;93.20
52245;DHT22;55759;51.586;-1.758;2023-07-31T00:28:02;16.40;93.10
52245;DHT22;55759;51.586;-1.758;2023-07-31T00:30:27;16.50;93.10
52245;DHT22;55759;51.586;-1.758;2023-07-31T00:32:53;16.50;93.20
52245;DHT22;55759;51.586;-1.758;2023-07-31T00:35:19;16.50;93.10
52245;DHT22;55759;51.586;-1.758;2023-07-31T00:37:44;16.50;93.10
52245;DHT22;55759;51.586;-1.758;2023-07-31T00:40:10;16.50;93.00
52245;DHT22;55759;51.586;-1.758;2023-07-31T00:42:35;16.50;93.00
52245;DHT22;55759;51.586;-1.758;2023-07-31T00:45:01;16.50;93.00
52245;DHT22;55759;51.586;-1.758;2023-07-31T00:47:27;16.50;93.00
52245;DHT22;55759;51.586;-1.758;2023-07-31T00:49:52;16.60;93.00
52245;DHT22;55759;51.586;-1.758;2023-07-31T00:52:18;16.60;93.00
52245;DHT22;55759;51.586;-1.758;2023-07-31T00:54:43;16.60;92.90
52245;DHT22;55759;51.586;-1.758;2023-07-31T00:57:09;16.60;92.80
52245;DHT22;55759;51.586;-1.758;2023-07-31T00:59:35;16.60;92.70
52245;DHT22;55759;51.586;-1.758;2023-07-31T01:02:00;16.60;92.70
52245;DHT22;55759;51.586;-1.758;2023-07-31T01:04:26;16.60;92.80
52245;DHT22;55759;51.586;-1.758;2023-07-31T01:06:56;16.60;92.80
52245;DHT22;55759;51.586;-1.758;2023-07-31T01:09:32;16.60;92.80
52245;DHT22;55759;51.586;-1.758;2023-07-31T01:12:02;16.60;92.90
52245;DHT22;55759;51.586;-1.758;2023-07-31T01:14:29;16.60;92.90
52245;DHT22;55759;51.586;-1.758;2023-07-31T01:16:54;16.60;92.90
52245;DHT22;55759;51.586;-1.758;2023-07-31T01:19:24;16.60;92.90
52245;DHT22;55759;51.586;-1.758;2023-07-31T01:24:58;16.70;92.90
52245;DHT22;55759;51.586;-1.758;2023-07-31T01:27:27;16.70;92.90
52245;DHT22;55759;51.586;-1.758;2023-07-31T01:30:03;16.70;92.90
52245;DHT22;55759;51.586;-1.758;2023-07-31T01:32:36;16.70;92.90
52245;DHT22;55759;51.586;-1.758;2023-07-31T01:35:01;16.70;92.90
52245;DHT22;55759;51.586;-1.758;2023-07-31T01:37:30;16.70;92.90
52245;DHT22;55759;51.586;-1.758;2023-07-31T01:39:56;16.70;92.90
52245;DHT22;55759;51.586;-1.758;2023-07-31T01:42:21;16.70;92.90
52245;DHT22;55759;51.586;-1.758;2023-07-31T01:44:47;16.70;92.90
52245;DHT22;55759;51.586;-1.758;2023-07-31T01:47:12;16.80;92.90
52245;DHT22;55759;51.586;-1.758;2023-07-31T01:49:38;16.70;92.90
52245;DHT22;55759;51.586;-1.758;2023-07-31T01:52:03;16.80;92.80
52245;DHT22;55759;51.586;-1.758;2023-07-31T01:54:29;16.80;92.80
52245;DHT22;55759;51.586;-1.758;2023-07-31T01:56:55;16.70;92.80
52245;DHT22;55759;51.586;-1.758;2023-07-31T01:59:20;16.70;92.90
52245;DHT22;55759;51.586;-1.758;2023-07-31T02:01:46;16.80;92.90
52245;DHT22;55759;51.586;-1.758;2023-07-31T02:04:11;16.80;92.80
52245;DHT22;55759;51.586;-1.758;2023-07-31T02:06:37;16.80;92.80
52245;DHT22;55759;51.586;-1.758;2023-07-31T02:09:03;16.80;92.90
52245;DHT22;55759;51.586;-1.758;2023-07-31T02:11:28;16.80;92.80
52245;DHT22;55759;51.586;-1.758;2023-07-31T02:13:54;16.70;92.90
52245;DHT22;55759;51.586;-1.758;2023-07-31T02:16:19;16.80;93.00
52245;DHT22;55759;51.586;-1.758;2023-07-31T02:18:45;16.80;93.00
52245;DHT22;55759;51.586;-1.758;2023-07-31T02:21:11;16.80;93.10
52245;DHT22;55759;51.586;-1.758;2023-07-31T02:23:36;16.80;93.10
52245;DHT22;55759;51.586;-1.758;2023-07-31T02:26:02;16.80;93.10
52245;DHT22;55759;51.586;-1.758;2023-07-31T02:28:28;16.80;93.10
52245;DHT22;55759;51.586;-1.758;2023-07-31T02:30:53;16.90;93.10
52245;DHT22;55759;51.586;-1.758;2023-07-31T02:33:19;16.90;93.00
52245;DHT22;55759;51.586;-1.758;2023-07-31T02:35:44;16.90;93.00
52245;DHT22;55759;51.586;-1.758;2023-07-31T02:38:10;16.90;93.10
52245;DHT22;55759;51.586;-1.758;2023-07-31T02:40:36;16.90;93.20
52245;DHT22;55759;51.586;-1.758;2023-07-31T02:43:01;16.90;93.20
52245;DHT22;55759;51.586;-1.758;2023-07-31T02:45:27;16.90;93.20
52245;DHT22;55759;51.586;-1.758;2023-07-31T02:47:52;16.90;93.30
52245;DHT22;55759;51.586;-1.758;2023-07-31T02:50:18;17.00;93.30
52245;DHT22;55759;51.586;-1.758;2023-07-31T02:52:43;16.90;93.30
52245;DHT22;55759;51.586;-1.758;2023-07-31T02:55:09;16.90;93.40
52245;DHT22;55759;51.586;-1.758;2023-07-31T02:57:35;16.90;93.50
52245;DHT22;55759;51.586;-1.758;2023-07-31T03:00:00;16.90;93.50
52245;DHT22;55759;51.586;-1.758;2023-07-31T03:02:26;16.90;93.60
52245;DHT22;55759;51.586;-1.758;2023-07-31T03:04:51;16.90;93.60
52245;DHT22;55759;51.586;-1.758;2023-07-31T03:07:17;16.90;93.60
52245;DHT22;55759;51.586;-1.758;2023-07-31T03:09:43;16.90;93.70
52245;DHT22;55759;51.586;-1.758;2023-07-31T03:12:08;16.90;93.70
52245;DHT22;55759;51.586;-1.758;2023-07-31T03:14:34;16.90;93.70
52245;DHT22;55759;51.586;-1.758;2023-07-31T03:16:59;16.90;93.80
52245;DHT22;55759;51.586;-1.758;2023-07-31T03:19:25;16.90;93.80
52245;DHT22;55759;51.586;-1.758;2023-07-31T03:21:50;16.90;93.90
52245;DHT22;55759;51.586;-1.758;2023-07-31T03:24:16;17.00;93.80
52245;DHT22;55759;51.586;-1.758;2023-07-31T03:26:42;16.90;93.80
52245;DHT22;55759;51.586;-1.758;2023-07-31T03:29:07;16.90;93.80
52245;DHT22;55759;51.586;-1.758;2023-07-31T03:31:33;17.00;93.90
52245;DHT22;55759;51.586;-1.758;2023-07-31T03:33:59;17.00;93.80
52245;DHT22;55759;51.586;-1.758;2023-07-31T03:36:24;17.00;93.90
52245;DHT22;55759;51.586;-1.758;2023-07-31T03:38:51;17.00;93.90
52245;DHT22;55759;51.586;-1.758;2023-07-31T03:41:17;17.00;93.90
52245;DHT22;55759;51.586;-1.758;2023-07-31T03:43:42;17.00;93.90
52245;DHT22;55759;51.586;-1.758;2023-07-31T03:46:08;16.90;93.80
52245;DHT22;55759;51.586;-1.758;2023-07-31T03:48:33;16.90;93.70
52245;DHT22;55759;51.586;-1.758;2023-07-31T03:50:59;16.90;93.70
52245;DHT22;55759;51.586;-1.758;2023-07-31T03:53:24;16.90;93.70
52245;DHT22;55759;51.586;-1.758;2023-07-31T03:55:50;16.80;93.70
52245;DHT22;55759;51.586;-1.758;2023-07-31T03:58:15;16.80;93.60
52245;DHT22;55759;51.586;-1.758;2023-07-31T04:00:41;16.70;93.50
52245;DHT22;55759;51.586;-1.758;2023-07-31T04:03:07;16.70;93.50
52245;DHT22;55759;51.586;-1.758;2023-07-31T04:05:32;16.70;93.50
52245;DHT22;55759;51.586;-1.758;2023-07-31T04:07:58;16.70;93.50
52245;DHT22;55759;51.586;-1.758;2023-07-31T04:10:24;16.70;93.50
52245;DHT22;55759;51.586;-1.758;2023-07-31T04:12:49;16.70;93.40
52245;DHT22;55759;51.586;-1.758;2023-07-31T04:15:15;16.60;93.40
52245;DHT22;55759;51.586;-1.758;2023-07-31T04:17:40;16.60;93.30
52245;DHT22;55759;51.586;-1.758;2023-07-31T04:20:06;16.70;93.30
52245;DHT22;55759;51.586;-1.758;2023-07-31T04:22:32;16.70;93.30
52245;DHT22;55759;51.586;-1.758;2023-07-31T04:24:57;16.70;93.20
52245;DHT22;55759;51.586;-1.758;2023-07-31T04:27:23;16.70;93.20
52245;DHT22;55759;51.586;-1.758;2023-07-31T04:29:49;16.70;93.20
52245;DHT22;55759;51.586;-1.758;2023-07-31T04:32:14;16.70;93.20
52245;DHT22;55759;51.586;-1.758;2023-07-31T04:34:43;16.60;93.30
52245;DHT22;55759;51.586;-1.758;2023-07-31T04:37:08;16.60;93.30
52245;DHT22;55759;51.586;-1.758;2023-07-31T04:39:34;16.60;93.40
52245;DHT22;55759;51.586;-1.758;2023-07-31T04:42:00;16.60;93.40
52245;DHT22;55759;51.586;-1.758;2023-07-31T04:44:25;16.60;93.40
52245;DHT22;55759;51.586;-1.758;2023-07-31T04:46:51;16.60;93.50
52245;DHT22;55759;51.586;-1.758;2023-07-31T04:49:16;16.60;93.50
52245;DHT22;55759;51.586;-1.758;2023-07-31T04:51:42;16.50;93.40
52245;DHT22;55759;51.586;-1.758;2023-07-31T04:54:07;16.40;93.40
52245;DHT22;55759;51.586;-1.758;2023-07-31T04:56:33;16.40;93.30
52245;DHT22;55759;51.586;-1.758;2023-07-31T04:58:59;16.40;93.30
52245;DHT22;55759;51.586;-1.758;2023-07-31T05:01:24;16.40;93.40
52245;DHT22;55759;51.586;-1.758;2023-07-31T05:03:50;16.40;93.40
52245;DHT22;55759;51.586;-1.758;2023-07-31T05:06:15;16.40;93.40
52245;DHT22;55759;51.586;-1.758;2023-07-31T05:08:41;16.30;93.50
52245;DHT22;55759;51.586;-1.758;2023-07-31T05:11:07;16.30;93.50
52245;DHT22;55759;51.586;-1.758;2023-07-31T05:13:32;16.30;93.40
52245;DHT22;55759;51.586;-1.758;2023-07-31T05:15:58;16.30;93.50
52245;DHT22;55759;51.586;-1.758;2023-07-31T05:18:23;16.30;93.50
52245;DHT22;55759;51.586;-1.758;2023-07-31T05:20:49;16.30;93.50
52245;DHT22;55759;51.586;-1.758;2023-07-31T05:23:15;16.40;93.60
52245;DHT22;55759;51.586;-1.758;2023-07-31T05:25:40;16.30;93.50
52245;DHT22;55759;51.586;-1.758;2023-07-31T05:28:06;16.30;93.50
52245;DHT22;55759;51.586;-1.758;2023-07-31T05:30:31;16.30;93.50
52245;DHT22;55759;51.586;-1.758;2023-07-31T05:32:57;16.40;93.60
52245;DHT22;55759;51.586;-1.758;2023-07-31T05:35:22;16.40;93.60
52245;DHT22;55759;51.586;-1.758;2023-07-31T05:37:48;16.50;93.60
52245;DHT22;55759;51.586;-1.758;2023-07-31T05:40:13;16.50;93.60
52245;DHT22;55759;51.586;-1.758;2023-07-31T05:42:39;16.50;93.60
52245;DHT22;55759;51.586;-1.758;2023-07-31T05:45:05;16.50;93.30
52245;DHT22;55759;51.586;-1.758;2023-07-31T05:47:31;16.50;93.20
52245;DHT22;55759;51.586;-1.758;2023-07-31T05:49:57;16.50;93.10
52245;DHT22;55759;51.586;-1.758;2023-07-31T05:52:22;16.50;92.90
52245;DHT22;55759;51.586;-1.758;2023-07-31T05:54:48;16.50;92.90
52245;DHT22;55759;51.586;-1.758;2023-07-31T05:57:13;16.50;92.70
52245;DHT22;55759;51.586;-1.758;2023-07-31T05:59:39;16.50;92.80
52245;DHT22;55759;51.586;-1.758;2023-07-31T06:02:05;16.50;92.90
52245;DHT22;55759;51.586;-1.758;2023-07-31T06:04:31;16.50;92.70
52245;DHT22;55759;51.586;-1.758;2023-07-31T06:06:56;16.50;92.50
52245;DHT22;55759;51.586;-1.758;2023-07-31T06:09:22;16.50;92.40
52245;DHT22;55759;51.586;-1.758;2023-07-31T06:11:47;16.50;92.30
52245;DHT22;55759;51.586;-1.758;2023-07-31T06:14:13;16.50;92.40
52245;DHT22;55759;51.586;-1.758;2023-07-31T06:16:39;16.50;92.30
52245;DHT22;55759;51.586;-1.758;2023-07-31T06:19:04;16.50;92.50
52245;DHT22;55759;51.586;-1.758;2023-07-31T06:21:30;16.50;92.40
52245;DHT22;55759;51.586;-1.758;2023-07-31T06:23:56;16.50;92.50
52245;DHT22;55759;51.586;-1.758;2023-07-31T06:26:22;16.60;92.70
52245;DHT22;55759;51.586;-1.758;2023-07-31T06:28:47;16.60;92.90
52245;DHT22;55759;51.586;-1.758;2023-07-31T06:31:13;16.70;92.80
52245;DHT22;55759;51.586;-1.758;2023-07-31T06:33:38;16.80;92.70
52245;DHT22;55759;51.586;-1.758;2023-07-31T06:36:04;16.90;92.60
52245;DHT22;55759;51.586;-1.758;2023-07-31T06:38:29;16.90;92.50
52245;DHT22;55759;51.586;-1.758;2023-07-31T06:40:55;17.00;92.40
52245;DHT22;55759;51.586;-1.758;2023-07-31T06:43:20;17.10;91.90
52245;DHT22;55759;51.586;-1.758;2023-07-31T06:45:46;17.10;91.50
52245;DHT22;55759;51.586;-1.758;2023-07-31T06:48:13;17.10;91.50
52245;DHT22;55759;51.586;-1.758;2023-07-31T06:50:39;17.10;91.30
52245;DHT22;55759;51.586;-1.758;2023-07-31T06:53:04;17.10;90.90
52245;DHT22;55759;51.586;-1.758;2023-07-31T06:55:30;17.20;90.40
52245;DHT22;55759;51.586;-1.758;2023-07-31T06:57:56;17.30;90.60
52245;DHT22;55759;51.586;-1.758;2023-07-31T07:00:22;17.30;90.80
52245;DHT22;55759;51.586;-1.758;2023-07-31T07:02:48;17.40;90.30
52245;DHT22;55759;51.586;-1.758;2023-07-31T07:05:13;17.40;89.80
52245;DHT22;55759;51.586;-1.758;2023-07-31T07:07:39;17.50;89.80
52245;DHT22;55759;51.586;-1.758;2023-07-31T07:10:05;17.60;89.80
52245;DHT22;55759;51.586;-1.758;2023-07-31T07:12:31;17.80;89.60
52245;DHT22;55759;51.586;-1.758;2023-07-31T07:14:57;18.00;89.30
52245;DHT22;55759;51.586;-1.758;2023-07-31T07:17:23;18.10;88.70
52245;DHT22;55759;51.586;-1.758;2023-07-31T07:19:49;18.20;88.20
52245;DHT22;55759;51.586;-1.758;2023-07-31T07:22:14;18.20;87.60
52245;DHT22;55759;51.586;-1.758;2023-07-31T07:24:40;18.30;86.70
52245;DHT22;55759;51.586;-1.758;2023-07-31T07:27:06;18.40;87.50
52245;DHT22;55759;51.586;-1.758;2023-07-31T07:29:31;18.50;86.50
52245;DHT22;55759;51.586;-1.758;2023-07-31T07:31:57;18.60;85.90
52245;DHT22;55759;51.586;-1.758;2023-07-31T07:34:24;18.60;85.80
52245;DHT22;55759;51.586;-1.758;2023-07-31T07:36:49;18.60;84.70
52245;DHT22;55759;51.586;-1.758;2023-07-31T07:39:15;18.60;84.00
52245;DHT22;55759;51.586;-1.758;2023-07-31T07:41:40;18.60;85.10
52245;DHT22;55759;51.586;-1.758;2023-07-31T07:44:07;18.60;85.50
52245;DHT22;55759;51.586;-1.758;2023-07-31T07:46:33;18.60;85.20
52245;DHT22;55759;51.586;-1.758;2023-07-31T07:48:58;18.60;84.50
52245;DHT22;55759;51.586;-1.758;2023-07-31T07:51:24;18.50;85.00
52245;DHT22;55759;51.586;-1.758;2023-07-31T07:53:49;18.60;84.50
52245;DHT22;55759;51.586;-1.758;2023-07-31T07:56:15;18.70;85.00
52245;DHT22;55759;51.586;-1.758;2023-07-31T07:58:40;18.80;84.80
52245;DHT22;55759;51.586;-1.758;2023-07-31T08:01:06;19.00;83.60
52245;DHT22;55759;51.586;-1.758;2023-07-31T08:03:31;19.00;83.40
52245;DHT22;55759;51.586;-1.758;2023-07-31T08:05:57;19.10;83.00
52245;DHT22;55759;51.586;-1.758;2023-07-31T08:08:23;19.10;82.60
52245;DHT22;55759;51.586;-1.758;2023-07-31T08:10:49;19.10;82.30
52245;DHT22;55759;51.586;-1.758;2023-07-31T08:13:14;19.10;83.00
52245;DHT22;55759;51.586;-1.758;2023-07-31T08:15:42;19.10;81.60
52245;DHT22;55759;51.586;-1.758;2023-07-31T08:18:08;19.10;81.20
52245;DHT22;55759;51.586;-1.758;2023-07-31T08:20:34;19.00;80.40
52245;DHT22;55759;51.586;-1.758;2023-07-31T08:22:59;19.00;81.30
52245;DHT22;55759;51.586;-1.758;2023-07-31T08:25:25;18.90;81.70
52245;DHT22;55759;51.586;-1.758;2023-07-31T08:27:50;18.90;82.20
52245;DHT22;55759;51.586;-1.758;2023-07-31T08:30:18;18.90;81.50
52245;DHT22;55759;51.586;-1.758;2023-07-31T08:32:43;18.90;81.10
52245;DHT22;55759;51.586;-1.758;2023-07-31T08:35:09;18.90;80.30
52245;DHT22;55759;51.586;-1.758;2023-07-31T08:37:34;18.90;81.70
52245;DHT22;55759;51.586;-1.758;2023-07-31T08:40:00;18.90;80.00
52245;DHT22;55759;51.586;-1.758;2023-07-31T08:42:26;18.90;80.00
52245;DHT22;55759;51.586;-1.758;2023-07-31T08:44:52;19.00;81.10
52245;DHT22;55759;51.586;-1.758;2023-07-31T08:47:18;19.10;81.40
52245;DHT22;55759;51.586;-1.758;2023-07-31T08:49:44;19.40;80.40
52245;DHT22;55759;51.586;-1.758;2023-07-31T08:52:11;19.60;78.90
52245;DHT22;55759;51.586;-1.758;2023-07-31T08:54:37;19.80;78.80
52245;DHT22;55759;51.586;-1.758;2023-07-31T08:57:03;19.90;78.70
52245;DHT22;55759;51.586;-1.758;2023-07-31T08:59:29;20.20;77.60
52245;DHT22;55759;51.586;-1.758;2023-07-31T09:01:55;20.50;77.00
52245;DHT22;55759;51.586;-1.758;2023-07-31T09:04:23;20.60;76.90
52245;DHT22;55759;51.586;-1.758;2023-07-31T09:06:48;20.60;76.40
52245;DHT22;55759;51.586;-1.758;2023-07-31T09:09:14;20.60;76.00
52245;DHT22;55759;51.586;-1.758;2023-07-31T09:11:40;20.50;76.50
52245;DHT22;55759;51.586;-1.758;2023-07-31T09:14:07;20.40;75.80
52245;DHT22;55759;51.586;-1.758;2023-07-31T09:16:34;20.30;76.20
52245;DHT22;55759;51.586;-1.758;2023-07-31T09:19:00;20.10;77.00
52245;DHT22;55759;51.586;-1.758;2023-07-31T09:21:27;20.00;76.60
52245;DHT22;55759;51.586;-1.758;2023-07-31T09:23:53;19.80;76.90
52245;DHT22;55759;51.586;-1.758;2023-07-31T09:26:29;19.60;77.30
52245;DHT22;55759;51.586;-1.758;2023-07-31T09:28:55;19.50;78.30
52245;DHT22;55759;51.586;-1.758;2023-07-31T09:31:40;19.30;77.90
52245;DHT22;55759;51.586;-1.758;2023-07-31T09:34:06;19.20;78.60
52245;DHT22;55759;51.586;-1.758;2023-07-31T09:36:32;19.20;78.80
52245;DHT22;55759;51.586;-1.758;2023-07-31T09:39:01;19.30;79.10
52245;DHT22;55759;51.586;-1.758;2023-07-31T09:41:27;19.40;79.00
52245;DHT22;55759;51.586;-1.758;2023-07-31T09:43:53;19.50;78.40
52245;DHT22;55759;51.586;-1.758;2023-07-31T09:46:19;19.60;78.40
52245;DHT22;55759;51.586;-1.758;2023-07-31T09:48:45;19.70;77.50
52245;DHT22;55759;51.586;-1.758;2023-07-31T09:51:11;19.70;76.10
52245;DHT22;55759;51.586;-1.758;2023-07-31T09:53:36;19.60;77.10
52245;DHT22;55759;51.586;-1.758;2023-07-31T09:56:04;19.40;77.20
52245;DHT22;55759;51.586;-1.758;2023-07-31T09:58:30;19.40;77.30
52245;DHT22;55759;51.586;-1.758;2023-07-31T10:00:59;19.50;77.50
52245;DHT22;55759;51.586;-1.758;2023-07-31T10:03:27;19.70;74.90
52245;DHT22;55759;51.586;-1.758;2023-07-31T10:05:53;20.10;73.70
52245;DHT22;55759;51.586;-1.758;2023-07-31T10:08:21;20.40;73.30
52245;DHT22;55759;51.586;-1.758;2023-07-31T10:10:47;20.70;73.40
52245;DHT22;55759;51.586;-1.758;2023-07-31T10:13:13;21.00;72.10
52245;DHT22;55759;51.586;-1.758;2023-07-31T10:15:39;21.20;71.00
52245;DHT22;55759;51.586;-1.758;2023-07-31T10:18:06;21.40;69.80
52245;DHT22;55759;51.586;-1.758;2023-07-31T10:20:32;21.80;69.00
52245;DHT22;55759;51.586;-1.758;2023-07-31T10:22:58;22.00;69.00
52245;DHT22;55759;51.586;-1.758;2023-07-31T10:25:25;22.10;67.80
52245;DHT22;55759;51.586;-1.758;2023-07-31T10:27:51;21.90;68.20
52245;DHT22;55759;51.586;-1.758;2023-07-31T10:30:18;21.50;67.40
52245;DHT22;55759;51.586;-1.758;2023-07-31T10:32:45;21.00;69.70
52245;DHT22;55759;51.586;-1.758;2023-07-31T10:35:11;20.60;71.00
52245;DHT22;55759;51.586;-1.758;2023-07-31T10:37:41;20.50;71.20
52245;DHT22;55759;51.586;-1.758;2023-07-31T10:40:23;20.20;71.50
52245;DHT22;55759;51.586;-1.758;2023-07-31T10:42:50;20.20;72.10
52245;DHT22;55759;51.586;-1.758;2023-07-31T10:48:05;19.90;72.60
52245;DHT22;55759;51.586;-1.758;2023-07-31T10:50:32;19.70;73.90
52245;DHT22;55759;51.586;-1.758;2023-07-31T10:53:00;19.70;73.80
52245;DHT22;55759;51.586;-1.758;2023-07-31T10:57:53;19.90;74.30
52245;DHT22;55759;51.586;-1.758;2023-07-31T11:00:28;20.00;74.40
52245;DHT22;55759;51.586;-1.758;2023-07-31T11:03:16;19.80;73.60
52245;DHT22;55759;51.586;-1.758;2023-07-31T11:05:47;19.80;73.30
52245;DHT22;55759;51.586;-1.758;2023-07-31T11:08:17;19.90;73.60
52245;DHT22;55759;51.586;-1.758;2023-07-31T11:10:43;19.80;74.60
52245;DHT22;55759;51.586;-1.758;2023-07-31T11:13:09;19.90;74.70
52245;DHT22;55759;51.586;-1.758;2023-07-31T11:15:35;19.90;72.50
52245;DHT22;55759;51.586;-1.758;2023-07-31T11:18:01;19.70;73.40
52245;DHT22;55759;51.586;-1.758;2023-07-31T11:20:34;19.50;73.60
52245;DHT22;55759;51.586;-1.758;2023-07-31T11:23:01;19.20;74.40
52245;DHT22;55759;51.586;-1.758;2023-07-31T11:25:28;19.00;74.60
52245;DHT22;55759;51.586;-1.758;2023-07-31T11:27:54;18.70;77.00
52245;DHT22;55759;51.586;-1.758;2023-07-31T11:30:21;18.80;76.40
52245;DHT22;55759;51.586;-1.758;2023-07-31T11:32:47;18.90;75.30
52245;DHT22;55759;51.586;-1.758;2023-07-31T11:35:12;19.00;74.00
52245;DHT22;55759;51.586;-1.758;2023-07-31T11:37:39;19.10;75.20
52245;DHT22;55759;51.586;-1.758;2023-07-31T11:40:05;19.30;73.00
52245;DHT22;55759;51.586;-1.758;2023-07-31T11:42:30;19.30;73.40
52245;DHT22;55759;51.586;-1.758;2023-07-31T11:44:56;19.20;73.70
52245;DHT22;55759;51.586;-1.758;2023-07-31T11:47:23;19.10;74.70
52245;DHT22;55759;51.586;-1.758;2023-07-31T11:49:51;19.10;73.60
52245;DHT22;55759;51.586;-1.758;2023-07-31T11:52:17;18.90;74.40
52245;DHT22;55759;51.586;-1.758;2023-07-31T11:54:45;18.70;74.10
52245;DHT22;55759;51.586;-1.758;2023-07-31T11:57:11;18.60;76.30
52245;DHT22;55759;51.586;-1.758;2023-07-31T11:59:37;18.50;75.90
52245;DHT22;55759;51.586;-1.758;2023-07-31T12:02:03;18.50;76.00
52245;DHT22;55759;51.586;-1.758;2023-07-31T12:04:29;18.40;77.00
52245;DHT22;55759;51.586;-1.758;2023-07-31T12:06:55;18.50;76.20
52245;DHT22;55759;51.586;-1.758;2023-07-31T12:09:20;18.50;76.90
52245;DHT22;55759;51.586;-1.758;2023-07-31T12:11:47;18.40;77.50
52245;DHT22;55759;51.586;-1.758;2023-07-31T12:14:23;18.30;77.30
52245;DHT22;55759;51.586;-1.758;2023-07-31T12:16:52;18.10;78.50
52245;DHT22;55759;51.586;-1.758;2023-07-31T12:19:18;17.90;80.80
52245;DHT22;55759;51.586;-1.758;2023-07-31T12:21:44;17.70;80.00
52245;DHT22;55759;51.586;-1.758;2023-07-31T12:24:10;17.60;82.20
52245;DHT22;55759;51.586;-1.758;2023-07-31T12:26:35;17.40;81.20
52245;DHT22;55759;51.586;-1.758;2023-07-31T12:29:01;17.20;82.90
52245;DHT22;55759;51.586;-1.758;2023-07-31T12:31:27;17.00;84.70
52245;DHT22;55759;51.586;-1.758;2023-07-31T12:33:53;16.80;85.50
52245;DHT22;55759;51.586;-1.758;2023-07-31T12:36:22;16.70;85.70
52245;DHT22;55759;51.586;-1.758;2023-07-31T12:38:52;16.60;86.40
52245;DHT22;55759;51.586;-1.758;2023-07-31T12:41:18;16.60;87.20
52245;DHT22;55759;51.586;-1.758;2023-07-31T12:43:44;16.60;87.60
52245;DHT22;55759;51.586;-1.758;2023-07-31T12:46:10;16.60;87.50
52245;DHT22;55759;51.586;-1.758;2023-07-31T12:48:37;16.60;87.20
52245;DHT22;55759;51.586;-1.758;2023-07-31T12:51:02;16.50;87.70
52245;DHT22;55759;51.586;-1.758;2023-07-31T12:53:28;16.50;88.30
52245;DHT22;55759;51.586;-1.758;2023-07-31T12:55:54;16.60;89.00
52245;DHT22;55759;51.586;-1.758;2023-07-31T12:58:20;16.50;87.60
52245;DHT22;55759;51.586;-1.758;2023-07-31T13:00:46;16.40;88.00
52245;DHT22;55759;51.586;-1.758;2023-07-31T13:03:11;16.40;88.10
52245;DHT22;55759;51.586;-1.758;2023-07-31T13:05:37;16.40;88.30
52245;DHT22;55759;51.586;-1.758;2023-07-31T13:08:05;16.20;88.70
52245;DHT22;55759;51.586;-1.758;2023-07-31T13:10:31;16.20;87.60
52245;DHT22;55759;51.586;-1.758;2023-07-31T13:12:56;16.30;87.50
52245;DHT22;55759;51.586;-1.758;2023-07-31T13:15:22;16.30;88.00
52245;DHT22;55759;51.586;-1.758;2023-07-31T13:17:48;16.40;88.30
52245;DHT22;55759;51.586;-1.758;2023-07-31T13:20:14;16.40;88.00
52245;DHT22;55759;51.586;-1.758;2023-07-31T13:22:39;16.50;88.20
52245;DHT22;55759;51.586;-1.758;2023-07-31T13:25:05;16.60;88.10
52245;DHT22;55759;51.586;-1.758;2023-07-31T13:27:31;16.70;86.50
52245;DHT22;55759;51.586;-1.758;2023-07-31T13:29:57;16.80;85.80
52245;DHT22;55759;51.586;-1.758;2023-07-31T13:32:22;16.80;86.30
52245;DHT22;55759;51.586;-1.758;2023-07-31T13:34:48;17.00;87.00
52245;DHT22;55759;51.586;-1.758;2023-07-31T13:37:14;17.10;86.40
52245;DHT22;55759;51.586;-1.758;2023-07-31T13:39:40;17.20;85.20
52245;DHT22;55759;51.586;-1.758;2023-07-31T13:42:06;17.30;85.30
52245;DHT22;55759;51.586;-1.758;2023-07-31T13:44:36;17.50;85.00
52245;DHT22;55759;51.586;-1.758;2023-07-31T13:47:02;17.60;84.70
52245;DHT22;55759;51.586;-1.758;2023-07-31T13:49:28;17.70;84.80
52245;DHT22;55759;51.586;-1.758;2023-07-31T13:51:53;17.70;84.80
52245;DHT22;55759;51.586;-1.758;2023-07-31T13:54:19;17.80;84.90
52245;DHT22;55759;51.586;-1.758;2023-07-31T13:56:45;17.90;84.10
52245;DHT22;55759;51.586;-1.758;2023-07-31T13:59:10;18.00;83.50
52245;DHT22;55759;51.586;-1.758;2023-07-31T14:01:36;17.90;83.20
52245;DHT22;55759;51.586;-1.758;2023-07-31T14:04:02;17.90;83.30
52245;DHT22;55759;51.586;-1.758;2023-07-31T14:06:27;17.90;83.50
52245;DHT22;55759;51.586;-1.758;2023-07-31T14:08:53;18.00;83.20
52245;DHT22;55759;51.586;-1.758;2023-07-31T14:11:18;18.10;82.10
52245;DHT22;55759;51.586;-1.758;2023-07-31T14:13:44;18.20;81.30
52245;DHT22;55759;51.586;-1.758;2023-07-31T14:16:10;18.40;81.20
52245;DHT22;55759;51.586;-1.758;2023-07-31T14:18:35;18.20;81.40
52245;DHT22;55759;51.586;-1.758;2023-07-31T14:21:01;18.10;82.20
52245;DHT22;55759;51.586;-1.758;2023-07-31T14:23:26;17.80;82.50
52245;DHT22;55759;51.586;-1.758;2023-07-31T14:25:52;17.50;83.90
52245;DHT22;55759;51.586;-1.758;2023-07-31T14:28:17;17.60;85.50
52245;DHT22;55759;51.586;-1.758;2023-07-31T14:30:43;18.20;85.40
52245;DHT22;55759;51.586;-1.758;2023-07-31T14:33:08;19.20;83.90
52245;DHT22;55759;51.586;-1.758;2023-07-31T14:35:34;20.10;80.10
52245;DHT22;55759;51.586;-1.758;2023-07-31T14:38:01;20.40;77.60
52245;DHT22;55759;51.586;-1.758;2023-07-31T14:40:27;20.30;77.30
52245;DHT22;55759;51.586;-1.758;2023-07-31T14:42:52;20.40;76.00
52245;DHT22;55759;51.586;-1.758;2023-07-31T14:45:18;20.60;76.40
52245;DHT22;55759;51.586;-1.758;2023-07-31T14:47:43;20.90;74.30
52245;DHT22;55759;51.586;-1.758;2023-07-31T14:50:09;21.10;71.90
52245;DHT22;55759;51.586;-1.758;2023-07-31T14:52:35;21.10;71.10
52245;DHT22;55759;51.586;-1.758;2023-07-31T14:55:00;21.00;70.20
52245;DHT22;55759;51.586;-1.758;2023-07-31T14:57:26;21.00;69.00
52245;DHT22;55759;51.586;-1.758;2023-07-31T14:59:52;21.30;69.00
52245;DHT22;55759;51.586;-1.758;2023-07-31T15:02:17;21.50;68.80
52245;DHT22;55759;51.586;-1.758;2023-07-31T15:04:43;21.80;67.20
52245;DHT22;55759;51.586;-1.758;2023-07-31T15:07:08;22.50;67.50
52245;DHT22;55759;51.586;-1.758;2023-07-31T15:09:34;24.00;62.90
52245;DHT22;55759;51.586;-1.758;2023-07-31T15:11:59;24.50;59.50
52245;DHT22;55759;51.586;-1.758;2023-07-31T15:14:25;24.10;56.90
52245;DHT22;55759;51.586;-1.758;2023-07-31T15:16:52;25.10;57.10